sensor_id;sensor_type;location;lat;lon;timestamp;temperature;humidity
52273;DHT22;38227;50.942;4.016;2023-04-25T15:05:33;12.30;92.20
52273;DHT22;38227;50.942;4.016;2023-04-25T15:08:11;12.20;92.30
52273;DHT22;38227;50.942;4.016;2023-04-25T15:10:42;12.20;92.30
52273;DHT22;38227;50.942;4.016;2023-04-25T15:13:14;12.20;91.80
52273;DHT22;38227;50.942;4.016;2023-04-25T15:15:43;12.10;91.20
52273;DHT22;38227;50.942;4.016;2023-04-25T15:18:19;12.20;91.70
52273;DHT22;38227;50.942;4.016;2023-04-25T15:20:52;12.40;91.20
52273;DHT22;38227;50.942;4.016;2023-04-25T15:23:21;12.40;91.50
52273;DHT22;38227;50.942;4.016;2023-04-25T15:26:02;12.50;90.90
52273;DHT22;38227;50.942;4.016;2023-04-25T15:28:34;12.40;90.80
52273;DHT22;38227;50.942;4.016;2023-04-25T15:31:02;12.50;91.10
52273;DHT22;38227;50.942;4.016;2023-04-25T15:33:34;12.50;90.20
52273;DHT22;38227;50.942;4.016;2023-04-25T15:36:03;12.70;91.20
52273;DHT22;38227;50.942;4.016;2023-04-25T15:38:32;12.90;90.40
52273;DHT22;38227;50.942;4.016;2023-04-25T15:41:04;12.80;90.10
52273;DHT22;38227;50.942;4.016;2023-04-25T15:43:32;12.80;90.50
52273;DHT22;38227;50.942;4.016;2023-04-25T15:46:04;12.80;89.90
52273;DHT22;38227;50.942;4.016;2023-04-25T15:48:32;12.70;89.40
52273;DHT22;38227;50.942;4.016;2023-04-25T15:51:01;12.60;88.80
52273;DHT22;38227;50.942;4.016;2023-04-25T15:53:37;12.40;90.20
52273;DHT22;38227;50.942;4.016;2023-04-25T15:56:15;12.30;90.10
52273;DHT22;38227;50.942;4.016;2023-04-25T15:58:47;12.40;90.10
52273;DHT22;38227;50.942;4.016;2023-04-25T16:01:19;12.40;89.70
52273;DHT22;38227;50.942;4.016;2023-04-25T16:03:49;12.40;89.90
52273;DHT22;38227;50.942;4.016;2023-04-25T16:06:22;12.50;90.40
52273;DHT22;38227;50.942;4.016;2023-04-25T16:08:50;12.30;91.30
52273;DHT22;38227;50.942;4.016;2023-04-25T16:11:23;12.50;90.60
52273;DHT22;38227;50.942;4.016;2023-04-25T16:13:50;12.50;90.70
52273;DHT22;38227;50.942;4.016;2023-04-25T16:16:18;12.50;91.40
52273;DHT22;38227;50.942;4.016;2023-04-25T16:18:46;12.50;92.50
52273;DHT22;38227;50.942;4.016;2023-04-25T16:21:18;12.50;92.60
52273;DHT22;38227;50.942;4.016;2023-04-25T16:23:46;12.60;92.70
52273;DHT22;38227;50.942;4.016;2023-04-25T16:26:19;12.80;93.00
52273;DHT22;38227;50.942;4.016;2023-04-25T16:28:47;12.80;92.60
52273;DHT22;38227;50.942;4.016;2023-04-25T16:31:15;12.80;93.10
52273;DHT22;38227;50.942;4.016;2023-04-25T16:33:47;12.70;92.60
52273;DHT22;38227;50.942;4.016;2023-04-25T16:36:15;12.70;93.10
52273;DHT22;38227;50.942;4.016;2023-04-25T16:38:48;12.80;92.80
52273;DHT22;38227;50.942;4.016;2023-04-25T16:41:17;12.80;92.50
52273;DHT22;38227;50.942;4.016;2023-04-25T16:43:50;12.80;91.60
52273;DHT22;38227;50.942;4.016;2023-04-25T16:46:18;12.60;92.00
52273;DHT22;38227;50.942;4.016;2023-04-25T16:48:52;12.60;91.80
52273;DHT22;38227;50.942;4.016;2023-04-25T16:51:21;12.40;92.40
52273;DHT22;38227;50.942;4.016;2023-04-25T16:53:53;12.30;92.90
52273;DHT22;38227;50.942;4.016;2023-04-25T16:56:20;12.40;92.90
52273;DHT22;38227;50.942;4.016;2023-04-25T16:58:58;12.30;91.60
52273;DHT22;38227;50.942;4.016;2023-04-25T17:01:30;12.40;92.10
52273;DHT22;38227;50.942;4.016;2023-04-25T17:04:00;12.40;91.80
52273;DHT22;38227;50.942;4.016;2023-04-25T17:06:38;12.40;91.70
52273;DHT22;38227;50.942;4.016;2023-04-25T17:09:07;12.30;92.20
52273;DHT22;38227;50.942;4.016;2023-04-25T17:11:40;12.20;91.90
52273;DHT22;38227;50.942;4.016;2023-04-25T17:14:11;12.10;92.00
52273;DHT22;38227;50.942;4.016;2023-04-25T17:16:52;12.20;92.90
52273;DHT22;38227;50.942;4.016;2023-04-25T17:19:20;12.20;92.80
52273;DHT22;38227;50.942;4.016;2023-04-25T17:21:52;12.40;91.70
52273;DHT22;38227;50.942;4.016;2023-04-25T17:24:21;12.50;91.40
52273;DHT22;38227;50.942;4.016;2023-04-25T17:27:00;12.50;91.70
52273;DHT22;38227;50.942;4.016;2023-04-25T17:29:28;12.60;92.20
52273;DHT22;38227;50.942;4.016;2023-04-25T17:32:07;12.40;90.80
52273;DHT22;38227;50.942;4.016;2023-04-25T17:34:39;12.30;91.20
52273;DHT22;38227;50.942;4.016;2023-04-25T17:37:09;12.30;90.90
52273;DHT22;38227;50.942;4.016;2023-04-25T17:39:42;12.30;91.50
52273;DHT22;38227;50.942;4.016;2023-04-25T17:42:10;12.40;90.70
52273;DHT22;38227;50.942;4.016;2023-04-25T17:44:41;12.30;90.80
52273;DHT22;38227;50.942;4.016;2023-04-25T17:47:13;12.00;91.10
52273;DHT22;38227;50.942;4.016;2023-04-25T17:49:40;12.00;91.00
52273;DHT22;38227;50.942;4.016;2023-04-25T17:52:09;11.90;91.20
52273;DHT22;38227;50.942;4.016;2023-04-25T17:54:38;11.80;91.60
52273;DHT22;38227;50.942;4.016;2023-04-25T17:57:07;11.80;92.50
52273;DHT22;38227;50.942;4.016;2023-04-25T17:59:48;11.70;91.80
52273;DHT22;38227;50.942;4.016;2023-04-25T18:02:19;11.80;92.30
52273;DHT22;38227;50.942;4.016;2023-04-25T18:04:47;11.60;92.90
52273;DHT22;38227;50.942;4.016;2023-04-25T18:07:25;11.70;92.80
52273;DHT22;38227;50.942;4.016;2023-04-25T18:09:58;11.80;92.70
52273;DHT22;38227;50.942;4.016;2023-04-25T18:12:27;11.70;93.00
52273;DHT22;38227;50.942;4.016;2023-04-25T18:14:59;11.70;93.60
52273;DHT22;38227;50.942;4.016;2023-04-25T18:17:30;11.70;93.70
52273;DHT22;38227;50.942;4.016;2023-04-25T18:20:02;11.60;94.00
52273;DHT22;38227;50.942;4.016;2023-04-25T18:22:33;11.50;94.70
52273;DHT22;38227;50.942;4.016;2023-04-25T18:25:04;11.40;94.90
52273;DHT22;38227;50.942;4.016;2023-04-25T18:27:33;11.20;94.90
52273;DHT22;38227;50.942;4.016;2023-04-25T18:30:05;11.00;94.90
52273;DHT22;38227;50.942;4.016;2023-04-25T18:32:37;11.00;95.40
52273;DHT22;38227;50.942;4.016;2023-04-25T18:35:10;10.80;95.70
52273;DHT22;38227;50.942;4.016;2023-04-25T18:37:38;10.80;95.20
52273;DHT22;38227;50.942;4.016;2023-04-25T18:40:07;10.70;95.20
52273;DHT22;38227;50.942;4.016;2023-04-25T18:42:38;10.60;94.70
52273;DHT22;38227;50.942;4.016;2023-04-25T18:45:08;10.60;94.90
52273;DHT22;38227;50.942;4.016;2023-04-25T18:47:37;10.40;95.70
52273;DHT22;38227;50.942;4.016;2023-04-25T18:50:07;10.20;96.00
52273;DHT22;38227;50.942;4.016;2023-04-25T18:52:37;10.20;96.40
52273;DHT22;38227;50.942;4.016;2023-04-25T18:55:06;10.10;96.70
52273;DHT22;38227;50.942;4.016;2023-04-25T18:57:36;10.10;96.20
52273;DHT22;38227;50.942;4.016;2023-04-25T19:00:05;10.10;96.40
52273;DHT22;38227;50.942;4.016;2023-04-25T19:02:36;10.20;96.00
52273;DHT22;38227;50.942;4.016;2023-04-25T19:05:04;10.10;96.10
52273;DHT22;38227;50.942;4.016;2023-04-25T19:07:37;10.00;96.40
52273;DHT22;38227;50.942;4.016;2023-04-25T19:10:32;10.00;96.60
52273;DHT22;38227;50.942;4.016;2023-04-25T19:13:00;9.90;97.10
52273;DHT22;38227;50.942;4.016;2023-04-25T19:15:38;9.90;97.50
52273;DHT22;38227;50.942;4.016;2023-04-25T19:18:07;9.70;98.10
52273;DHT22;38227;50.942;4.016;2023-04-25T19:20:45;9.60;97.80
52273;DHT22;38227;50.942;4.016;2023-04-25T19:23:13;9.60;98.20
52273;DHT22;38227;50.942;4.016;2023-04-25T19:25:44;9.60;98.60
52273;DHT22;38227;50.942;4.016;2023-04-25T19:28:16;9.50;98.70
52273;DHT22;38227;50.942;4.016;2023-04-25T19:30:53;9.40;99.30
52273;DHT22;38227;50.942;4.016;2023-04-25T19:33:25;9.40;99.20
52273;DHT22;38227;50.942;4.016;2023-04-25T19:36:05;9.40;99.40
52273;DHT22;38227;50.942;4.016;2023-04-25T19:38:33;9.30;99.70
52273;DHT22;38227;50.942;4.016;2023-04-25T19:41:11;9.30;99.90
52273;DHT22;38227;50.942;4.016;2023-04-25T19:43:39;9.20;99.90
52273;DHT22;38227;50.942;4.016;2023-04-25T19:46:17;9.20;99.90
52273;DHT22;38227;50.942;4.016;2023-04-25T19:48:45;9.20;99.90
52273;DHT22;38227;50.942;4.016;2023-04-25T19:51:13;9.10;99.90
52273;DHT22;38227;50.942;4.016;2023-04-25T19:53:42;9.10;99.90
52273;DHT22;38227;50.942;4.016;2023-04-25T19:56:21;9.00;99.90
52273;DHT22;38227;50.942;4.016;2023-04-25T19:59:02;9.10;99.90
52273;DHT22;38227;50.942;4.016;2023-04-25T20:01:30;9.00;99.90
52273;DHT22;38227;50.942;4.016;2023-04-25T20:03:59;8.90;99.90
52273;DHT22;38227;50.942;4.016;2023-04-25T20:06:30;8.90;99.90
52273;DHT22;38227;50.942;4.016;2023-04-25T20:09:03;8.80;99.90
52273;DHT22;38227;50.942;4.016;2023-04-25T20:11:38;8.70;99.90
52273;DHT22;38227;50.942;4.016;2023-04-25T20:14:06;8.60;99.90
52273;DHT22;38227;50.942;4.016;2023-04-25T20:16:34;8.60;99.90
52273;DHT22;38227;50.942;4.016;2023-04-25T20:19:07;8.60;99.90
52273;DHT22;38227;50.942;4.016;2023-04-25T20:21:35;8.40;99.90
52273;DHT22;38227;50.942;4.016;2023-04-25T20:24:04;8.40;99.90
52273;DHT22;38227;50.942;4.016;2023-04-25T20:26:42;8.30;99.90
52273;DHT22;38227;50.942;4.016;2023-04-25T20:29:14;8.20;99.90
52273;DHT22;38227;50.942;4.016;2023-04-25T20:31:46;8.20;99.90
52273;DHT22;38227;50.942;4.016;2023-04-25T20:34:18;8.20;99.90
52273;DHT22;38227;50.942;4.016;2023-04-25T20:36:47;8.20;99.90
52273;DHT22;38227;50.942;4.016;2023-04-25T20:39:17;8.20;99.90
52273;DHT22;38227;50.942;4.016;2023-04-25T20:41:56;8.20;99.90
52273;DHT22;38227;50.942;4.016;2023-04-25T20:44:24;8.20;99.90
52273;DHT22;38227;50.942;4.016;2023-04-25T20:46:56;8.20;99.90
52273;DHT22;38227;50.942;4.016;2023-04-25T20:49:24;8.10;99.90
52273;DHT22;38227;50.942;4.016;2023-04-25T20:51:56;8.10;99.90
52273;DHT22;38227;50.942;4.016;2023-04-25T20:54:24;8.00;99.90
52273;DHT22;38227;50.942;4.016;2023-04-25T20:56:57;8.10;99.90
52273;DHT22;38227;50.942;4.016;2023-04-25T20:59:25;8.10;99.90
52273;DHT22;38227;50.942;4.016;2023-04-25T21:02:04;8.00;99.90
52273;DHT22;38227;50.942;4.016;2023-04-25T21:04:32;7.90;99.90
52273;DHT22;38227;50.942;4.016;2023-04-25T21:07:00;7.70;99.90
52273;DHT22;38227;50.942;4.016;2023-04-25T21:09:39;7.70;99.90
52273;DHT22;38227;50.942;4.016;2023-04-25T21:12:10;7.60;99.90
52273;DHT22;38227;50.942;4.016;2023-04-25T21:14:39;7.60;99.90
52273;DHT22;38227;50.942;4.016;2023-04-25T21:17:11;7.70;99.90
52273;DHT22;38227;50.942;4.016;2023-04-25T21:19:40;7.70;99.90
52273;DHT22;38227;50.942;4.016;2023-04-25T21:22:08;7.70;99.90
52273;DHT22;38227;50.942;4.016;2023-04-25T21:24:40;7.60;99.90
52273;DHT22;38227;50.942;4.016;2023-04-25T21:27:08;7.70;99.90
52273;DHT22;38227;50.942;4.016;2023-04-25T21:29:40;7.60;99.90
52273;DHT22;38227;50.942;4.016;2023-04-25T21:32:08;7.60;99.90
52273;DHT22;38227;50.942;4.016;2023-04-25T21:34:46;7.50;99.90
52273;DHT22;38227;50.942;4.016;2023-04-25T21:37:15;7.40;99.90
52273;DHT22;38227;50.942;4.016;2023-04-25T21:39:43;7.50;99.90
52273;DHT22;38227;50.942;4.016;2023-04-25T21:42:22;7.40;99.90
52273;DHT22;38227;50.942;4.016;2023-04-25T21:45:01;7.30;99.90
52273;DHT22;38227;50.942;4.016;2023-04-25T21:47:28;7.30;99.90
52273;DHT22;38227;50.942;4.016;2023-04-25T21:49:59;7.20;99.90
52273;DHT22;38227;50.942;4.016;2023-04-25T21:52:30;7.10;99.90
52273;DHT22;38227;50.942;4.016;2023-04-25T21:55:02;7.10;99.90
52273;DHT22;38227;50.942;4.016;2023-04-25T21:57:40;7.00;99.90
52273;DHT22;38227;50.942;4.016;2023-04-25T22:00:09;6.90;99.90
52273;DHT22;38227;50.942;4.016;2023-04-25T22:02:47;6.70;99.90
52273;DHT22;38227;50.942;4.016;2023-04-25T22:05:22;6.70;99.90
52273;DHT22;38227;50.942;4.016;2023-04-25T22:07:52;6.80;99.90
52273;DHT22;38227;50.942;4.016;2023-04-25T22:10:22;6.70;99.90
52273;DHT22;38227;50.942;4.016;2023-04-25T22:13:00;6.70;99.90
52273;DHT22;38227;50.942;4.016;2023-04-25T22:15:28;6.70;99.90
52273;DHT22;38227;50.942;4.016;2023-04-25T22:18:06;6.80;99.90
52273;DHT22;38227;50.942;4.016;2023-04-25T22:20:35;6.80;99.90
52273;DHT22;38227;50.942;4.016;2023-04-25T22:23:03;6.80;99.90
52273;DHT22;38227;50.942;4.016;2023-04-25T22:25:35;6.70;99.90
52273;DHT22;38227;50.942;4.016;2023-04-25T22:28:04;6.60;99.90
52273;DHT22;38227;50.942;4.016;2023-04-25T22:30:35;6.50;99.90
52273;DHT22;38227;50.942;4.016;2023-04-25T22:33:03;6.50;99.90
52273;DHT22;38227;50.942;4.016;2023-04-25T22:35:36;6.50;99.90
52273;DHT22;38227;50.942;4.016;2023-04-25T22:38:04;6.50;99.90
52273;DHT22;38227;50.942;4.016;2023-04-25T22:40:42;6.50;99.90
52273;DHT22;38227;50.942;4.016;2023-04-25T22:43:13;6.50;99.90
52273;DHT22;38227;50.942;4.016;2023-04-25T22:45:45;6.50;99.90
52273;DHT22;38227;50.942;4.016;2023-04-25T22:48:13;6.60;99.90
52273;DHT22;38227;50.942;4.016;2023-04-25T22:50:45;6.60;99.90
52273;DHT22;38227;50.942;4.016;2023-04-25T22:53:14;6.60;99.90
52273;DHT22;38227;50.942;4.016;2023-04-25T22:55:53;6.50;99.90
52273;DHT22;38227;50.942;4.016;2023-04-25T22:58:22;6.40;99.90
52273;DHT22;38227;50.942;4.016;2023-04-25T23:00:52;6.40;99.90
52273;DHT22;38227;50.942;4.016;2023-04-25T23:03:20;6.40;99.90
52273;DHT22;38227;50.942;4.016;2023-04-25T23:05:53;6.40;99.90
52273;DHT22;38227;50.942;4.016;2023-04-25T23:08:21;6.40;99.90
52273;DHT22;38227;50.942;4.016;2023-04-25T23:11:03;6.40;99.90
52273;DHT22;38227;50.942;4.016;2023-04-25T23:13:42;6.30;99.90
52273;DHT22;38227;50.942;4.016;2023-04-25T23:16:14;6.30;99.90
52273;DHT22;38227;50.942;4.016;2023-04-25T23:18:42;6.30;99.90
52273;DHT22;38227;50.942;4.016;2023-04-25T23:21:14;6.20;99.90
52273;DHT22;38227;50.942;4.016;2023-04-25T23:23:42;6.20;99.90
52273;DHT22;38227;50.942;4.016;2023-04-25T23:26:14;6.10;99.90
52273;DHT22;38227;50.942;4.016;2023-04-25T23:28:46;6.10;99.90
52273;DHT22;38227;50.942;4.016;2023-04-25T23:31:14;6.10;99.90
52273;DHT22;38227;50.942;4.016;2023-04-25T23:33:52;6.00;99.90
52273;DHT22;38227;50.942;4.016;2023-04-25T23:36:20;6.00;99.90
52273;DHT22;38227;50.942;4.016;2023-04-25T23:38:59;6.00;99.90
52273;DHT22;38227;50.942;4.016;2023-04-25T23:41:27;6.00;99.90
52273;DHT22;38227;50.942;4.016;2023-04-25T23:44:06;6.00;99.90
52273;DHT22;38227;50.942;4.016;2023-04-25T23:46:39;6.00;99.90
52273;DHT22;38227;50.942;4.016;2023-04-25T23:49:17;5.90;99.90
52273;DHT22;38227;50.942;4.016;2023-04-25T23:51:45;5.80;99.90
52273;DHT22;38227;50.942;4.016;2023-04-25T23:54:25;5.90;99.90
52273;DHT22;38227;50.942;4.016;2023-04-25T23:56:53;5.90;99.90
52273;DHT22;38227;50.942;4.016;2023-04-25T23:59:21;5.70;99.90
